createdAt,value
2019-05-12T00:00:52.337Z,10.6
2019-05-12T00:01:53.613Z,10.5
2019-05-12T00:02:54.921Z,10.6
2019-05-12T00:03:58.011Z,10.7
2019-05-12T00:05:02.409Z,10.9
2019-05-12T00:06:03.662Z,11.1
2019-05-12T00:07:04.907Z,10.9
2019-05-12T00:08:08.190Z,11
2019-05-12T00:09:09.695Z,10.6
2019-05-12T00:10:10.945Z,10.5
2019-05-12T00:11:12.393Z,10.8
2019-05-12T00:12:13.643Z,10.6
2019-05-12T00:13:15.247Z,10.3
2019-05-12T00:14:17.754Z,10.3
2019-05-12T00:15:19.660Z,10.3
2019-05-12T00:16:21.079Z,10.3
2019-05-12T00:17:22.342Z,10.3
2019-05-12T00:18:23.633Z,10.3
2019-05-12T00:19:29.275Z,10.1
2019-05-12T00:20:30.529Z,10
2019-05-12T00:21:31.781Z,10.3
2019-05-12T00:22:33.286Z,10.2
2019-05-12T00:23:34.573Z,10.2
2019-05-12T00:24:35.848Z,9.9
2019-05-12T00:25:39.050Z,10.1
2019-05-12T00:26:40.677Z,9.8
2019-05-12T00:27:43.412Z,9.8
2019-05-12T00:28:45.279Z,9.9
2019-05-12T00:29:48.896Z,10.6
2019-05-12T00:30:50.143Z,10.4
2019-05-12T00:31:51.407Z,10.1
2019-05-12T00:32:52.653Z,9.8
2019-05-12T00:33:53.937Z,9.6
2019-05-12T00:34:55.192Z,9.5
2019-05-12T00:35:58.558Z,9.8
2019-05-12T00:37:00.435Z,9.7
2019-05-12T00:38:01.731Z,9.6
2019-05-12T00:39:03.031Z,9.8
2019-05-12T00:40:04.268Z,9.6
2019-05-12T00:41:05.557Z,9.8
2019-05-12T00:42:09.374Z,9.6
2019-05-12T00:43:10.646Z,9.4
2019-05-12T00:44:11.933Z,9.5
2019-05-12T00:45:13.213Z,9.2
2019-05-12T00:46:14.448Z,9.1
2019-05-12T00:47:15.690Z,9.1
2019-05-12T00:48:19.448Z,9.2
2019-05-12T00:49:20.749Z,9.2
2019-05-12T00:50:22.001Z,9.3
2019-05-12T00:51:23.249Z,9.2
2019-05-12T00:52:24.609Z,9.4
2019-05-12T00:53:36.950Z,9
2019-05-12T00:54:44.106Z,8.8
2019-05-12T00:55:47.518Z,9.1
2019-05-12T00:56:48.987Z,9.2
2019-05-12T00:57:50.239Z,9.2
2019-05-12T00:58:51.481Z,9
2019-05-12T00:59:52.753Z,9.3
2019-05-12T01:00:54.019Z,9
2019-05-12T01:01:55.297Z,8.8
2019-05-12T01:02:58.031Z,9
2019-05-12T01:03:59.570Z,9.1
2019-05-12T01:05:00.884Z,9.1
2019-05-12T01:06:02.110Z,9.2
2019-05-12T01:07:03.350Z,9
2019-05-12T01:08:04.589Z,8.7
2019-05-12T01:09:08.528Z,8.7
2019-05-12T01:10:10.092Z,9
2019-05-12T01:11:11.326Z,9
2019-05-12T01:12:12.581Z,8.6
2019-05-12T01:13:13.822Z,8.9
2019-05-12T01:14:15.050Z,8.6
2019-05-12T01:15:17.734Z,8.5
2019-05-12T01:16:19.143Z,8.4
2019-05-12T01:17:20.416Z,8.4
2019-05-12T01:18:21.654Z,8.7
2019-05-12T01:19:22.889Z,8.8
2019-05-12T01:20:24.186Z,8.7
2019-05-12T01:21:25.444Z,8.8
2019-05-12T01:22:27.713Z,8.4
2019-05-12T01:23:29.130Z,8.6
2019-05-12T01:24:30.394Z,8.2
2019-05-12T01:25:31.657Z,8.3
2019-05-12T01:26:32.922Z,8.3
2019-05-12T01:27:34.188Z,8.4
2019-05-12T01:28:35.436Z,8.5
2019-05-12T01:29:38.964Z,8.5
2019-05-12T01:30:40.253Z,8.7
2019-05-12T01:31:41.506Z,8.6
2019-05-12T01:32:42.764Z,8.9
2019-05-12T01:33:43.998Z,8.3
2019-05-12T01:34:45.237Z,8.5
2019-05-12T01:35:49.286Z,8.4
2019-05-12T01:36:50.558Z,8.4
2019-05-12T01:37:51.798Z,8.6
2019-05-12T01:38:53.064Z,8.3
2019-05-12T01:39:54.335Z,8.1
2019-05-12T01:40:58.183Z,8.4
2019-05-12T01:41:59.649Z,8.6
2019-05-12T01:43:02.288Z,8.4
2019-05-12T01:44:03.544Z,8.2
2019-05-12T01:45:05.076Z,8.3
2019-05-12T01:46:08.010Z,8.5
2019-05-12T01:47:09.422Z,8.3
2019-05-12T01:48:10.666Z,8.1
2019-05-12T01:49:11.910Z,8
2019-05-12T01:50:13.154Z,8.2
2019-05-12T01:51:14.484Z,8.2
2019-05-12T01:52:17.740Z,8.4
2019-05-12T01:53:19.186Z,8.3
2019-05-12T01:54:20.435Z,8
2019-05-12T01:55:21.680Z,8.1
2019-05-12T01:56:22.940Z,8.3
2019-05-12T01:57:24.208Z,8.1
2019-05-12T01:58:27.706Z,8.2
2019-05-12T01:59:29.178Z,8.3
2019-05-12T02:00:30.720Z,8.4
2019-05-12T02:01:32.240Z,8.1
2019-05-12T02:02:33.532Z,8
2019-05-12T02:03:37.507Z,8
2019-05-12T02:04:38.998Z,7.9
2019-05-12T02:05:40.240Z,7.8
2019-05-12T02:06:43.532Z,7.8
2019-05-12T02:07:44.782Z,7.9
2019-05-12T02:08:48.555Z,8
2019-05-12T02:09:49.818Z,7.9
2019-05-12T02:10:51.402Z,7.9
2019-05-12T02:11:52.712Z,8.1
2019-05-12T02:12:53.968Z,7.9
2019-05-12T02:13:55.217Z,7.8
2019-05-12T02:14:58.949Z,7.9
2019-05-12T02:16:00.296Z,8
2019-05-12T02:17:01.629Z,7.9
2019-05-12T02:18:02.879Z,8.1
2019-05-12T02:19:04.120Z,7.9
2019-05-12T02:20:07.224Z,8.2
2019-05-12T02:21:09.284Z,8.3
2019-05-12T02:22:10.552Z,8
2019-05-12T02:23:12.157Z,8
2019-05-12T02:24:24.169Z,8.3
2019-05-12T02:25:30.547Z,8.2
2019-05-12T02:26:31.798Z,8.1
2019-05-12T02:27:33.291Z,8.1
2019-05-12T02:28:34.548Z,8.1
2019-05-12T02:29:38.355Z,8
2019-05-12T02:30:41.307Z,8
2019-05-12T02:31:43.306Z,8
2019-05-12T02:32:52.290Z,7.8
2019-05-12T02:34:05.625Z,7.7
2019-05-12T02:35:07.132Z,8
2019-05-12T02:36:08.406Z,8.1
2019-05-12T02:37:09.685Z,8.1
2019-05-12T02:38:10.955Z,8
2019-05-12T02:39:15.249Z,8
2019-05-12T02:40:16.619Z,8
2019-05-12T02:41:17.870Z,8.2
2019-05-12T02:42:19.104Z,8.5
2019-05-12T02:43:20.389Z,8.4
2019-05-12T02:44:25.146Z,8.2
2019-05-12T02:45:29.394Z,8
2019-05-12T02:46:34.504Z,8.1
2019-05-12T02:47:36.130Z,8.1
2019-05-12T02:48:37.724Z,8.1
2019-05-12T02:49:39.013Z,8.1
2019-05-12T02:50:40.264Z,8.4
2019-05-12T02:51:41.528Z,8.6
2019-05-12T02:52:46.087Z,8.7
2019-05-12T02:53:47.507Z,8.7
2019-05-12T02:54:55.468Z,8.6
2019-05-12T02:56:04.567Z,8.5
2019-05-12T02:57:06.323Z,8.5
2019-05-12T02:58:07.622Z,8.6
2019-05-12T02:59:08.931Z,8.3
2019-05-12T03:00:10.190Z,8.3
2019-05-12T03:01:11.450Z,8.2
2019-05-12T03:02:16.053Z,8.3
2019-05-12T03:03:17.322Z,8.1
2019-05-12T03:04:20.383Z,8.3
2019-05-12T03:05:24.428Z,8.3
2019-05-12T03:06:25.988Z,8.2
2019-05-12T03:07:27.224Z,8.2
2019-05-12T03:08:28.481Z,8.5
2019-05-12T03:09:29.765Z,8.6
2019-05-12T03:10:31.003Z,8.4
2019-05-12T03:11:35.174Z,8.3
2019-05-12T03:12:38.919Z,8.3
2019-05-12T03:13:40.186Z,8.4
2019-05-12T03:14:43.909Z,8.6
2019-05-12T03:15:46.041Z,8.4
2019-05-12T03:16:47.279Z,8.6
2019-05-12T03:17:48.517Z,8.7
2019-05-12T03:18:49.776Z,8.8
2019-05-12T03:19:51.131Z,9
2019-05-12T03:20:54.646Z,9.3
2019-05-12T03:21:56.127Z,9
2019-05-12T03:22:57.375Z,9
2019-05-12T03:23:58.629Z,8.9
2019-05-12T03:25:11.136Z,9
2019-05-12T03:26:25.627Z,9.3
2019-05-12T03:27:26.887Z,9.5
2019-05-12T03:28:28.117Z,9.3
2019-05-12T03:29:29.400Z,9.2
2019-05-12T03:30:30.661Z,9
2019-05-12T03:31:40.465Z,9.2
2019-05-12T03:32:47.149Z,9.2
2019-05-12T03:33:52.361Z,9.5
2019-05-12T03:35:00.612Z,9.5
2019-05-12T03:36:01.933Z,9
2019-05-12T03:37:09.831Z,9.2
2019-05-12T03:38:14.353Z,9.2
2019-05-12T03:39:16.106Z,9
2019-05-12T03:40:17.365Z,9.4
2019-05-12T03:41:18.624Z,9.1
2019-05-12T03:42:19.873Z,8.9
2019-05-12T03:43:23.660Z,8.9
2019-05-12T03:44:25.603Z,9.1
2019-05-12T03:45:26.854Z,9.1
2019-05-12T03:46:28.121Z,9
2019-05-12T03:47:29.404Z,8.9
2019-05-12T03:48:30.653Z,9.2
2019-05-12T03:49:35.527Z,9.2
2019-05-12T03:50:36.802Z,9.3
2019-05-12T03:51:38.133Z,9.4
2019-05-12T03:52:39.391Z,9.3
2019-05-12T03:53:40.637Z,9.2
2019-05-12T03:54:44.862Z,9
2019-05-12T03:55:47.120Z,9.4
2019-05-12T03:56:49.247Z,9.4
2019-05-12T03:57:50.515Z,9.5
2019-05-12T03:58:54.070Z,9.4
2019-05-12T03:59:55.560Z,9.5
2019-05-12T04:00:56.805Z,9.4
2019-05-12T04:01:58.076Z,9.3
2019-05-12T04:02:59.324Z,9
2019-05-12T04:04:00.566Z,9.2
2019-05-12T04:05:04.742Z,9.1
2019-05-12T04:06:06.660Z,9
2019-05-12T04:07:08.251Z,9
2019-05-12T04:08:09.660Z,9
2019-05-12T04:09:11.347Z,9.1
2019-05-12T04:10:16.049Z,9.2
2019-05-12T04:11:17.627Z,9.4
2019-05-12T04:12:18.911Z,9.4
2019-05-12T04:13:20.138Z,9.4
2019-05-12T04:14:21.362Z,9.3
2019-05-12T04:15:25.823Z,9.3
2019-05-12T04:16:27.083Z,9.3
2019-05-12T04:17:28.373Z,8.8
2019-05-12T04:18:29.650Z,8.8
2019-05-12T04:19:33.668Z,9
2019-05-12T04:20:36.120Z,9
2019-05-12T04:21:37.710Z,9
2019-05-12T04:22:39.081Z,9.2
2019-05-12T04:23:40.690Z,9
2019-05-12T04:24:45.107Z,9
2019-05-12T04:25:51.895Z,9.1
2019-05-12T04:27:08.045Z,9.1
2019-05-12T04:28:09.320Z,9.1
2019-05-12T04:29:10.572Z,9.5
2019-05-12T04:30:14.397Z,9.5
2019-05-12T04:31:15.983Z,9.4
2019-05-12T04:32:17.348Z,9.5
2019-05-12T04:33:18.657Z,9.5
2019-05-12T04:34:19.890Z,9.5
2019-05-12T04:35:21.128Z,9.3
2019-05-12T04:36:25.815Z,9.3
2019-05-12T04:37:27.115Z,9.4
2019-05-12T04:38:28.431Z,9.4
2019-05-12T04:39:29.693Z,9.2
2019-05-12T04:40:30.925Z,9.1
2019-05-12T04:41:35.059Z,9.3
2019-05-12T04:42:36.557Z,9.4
2019-05-12T04:43:37.824Z,9.5
2019-05-12T04:44:39.069Z,9.3
2019-05-12T04:45:40.323Z,9.3
2019-05-12T04:46:44.815Z,9.2
2019-05-12T04:47:46.402Z,9.4
2019-05-12T04:48:47.680Z,9.7
2019-05-12T04:49:48.922Z,9.9
2019-05-12T04:50:50.156Z,10
2019-05-12T04:51:54.263Z,9.9
2019-05-12T04:52:55.788Z,9.6
2019-05-12T04:53:57.319Z,9.7
2019-05-12T04:54:58.583Z,9.8
2019-05-12T04:56:10.443Z,9.8
2019-05-12T04:57:21.374Z,9.8
2019-05-12T04:58:26.078Z,10
2019-05-12T04:59:27.431Z,9.9
2019-05-12T05:00:28.656Z,10
2019-05-12T05:01:29.902Z,9.8
2019-05-12T05:02:31.158Z,9.7
2019-05-12T05:03:36.792Z,9.6
2019-05-12T05:04:38.062Z,9.8
2019-05-12T05:05:39.322Z,9.9
2019-05-12T05:06:44.782Z,10
2019-05-12T05:07:46.279Z,9.8
2019-05-12T05:08:47.548Z,9.8
2019-05-12T05:09:48.865Z,10.1
2019-05-12T05:10:50.102Z,10
2019-05-12T05:11:53.616Z,9.9
2019-05-12T05:12:58.710Z,9.4
2019-05-12T05:13:59.971Z,9.6
2019-05-12T05:15:01.305Z,9.8
2019-05-12T05:16:05.055Z,10
2019-05-12T05:17:06.694Z,9.9
2019-05-12T05:18:08.325Z,9.9
2019-05-12T05:19:09.599Z,10.1
2019-05-12T05:20:10.908Z,10.2
2019-05-12T05:21:14.143Z,10.3
2019-05-12T05:22:15.394Z,10.4
2019-05-12T05:23:16.632Z,10.5
2019-05-12T05:24:18.100Z,10.8
2019-05-12T05:25:19.728Z,11
2019-05-12T05:26:25.224Z,10.7
2019-05-12T05:27:29.148Z,10.3
2019-05-12T05:28:30.617Z,10.5
2019-05-12T05:29:33.260Z,10.8
2019-05-12T05:30:37.884Z,11.1
2019-05-12T05:31:39.143Z,11.2
2019-05-12T05:32:40.386Z,11
2019-05-12T05:33:43.413Z,11.1
2019-05-12T05:34:45.805Z,11.1
2019-05-12T05:35:58.398Z,11.3
2019-05-12T05:37:01.457Z,11.4
2019-05-12T05:38:05.898Z,11.3
2019-05-12T05:39:13.674Z,11.3
2019-05-12T05:40:15.143Z,11.5
2019-05-12T05:41:20.664Z,11.2
2019-05-12T05:42:26.838Z,11.3
2019-05-12T05:43:33.525Z,11.4
2019-05-12T05:44:37.818Z,11.6
2019-05-12T05:45:39.300Z,11.5
2019-05-12T05:46:45.354Z,11.6
2019-05-12T05:47:50.974Z,11.7
2019-05-12T05:48:54.055Z,11.8
2019-05-12T05:49:55.507Z,11.9
2019-05-12T05:50:59.852Z,11.9
2019-05-12T05:52:09.088Z,11.9
2019-05-12T05:53:15.322Z,11.9
2019-05-12T05:54:22.574Z,11.9
2019-05-12T05:55:35.823Z,12
2019-05-12T05:56:42.874Z,12.1
2019-05-12T05:58:05.614Z,12.1
2019-05-12T05:59:11.234Z,12.1
2019-05-12T06:00:20.297Z,12.1
2019-05-12T06:01:27.526Z,12.2
2019-05-12T06:02:31.378Z,12.2
2019-05-12T06:03:41.177Z,12.2
2019-05-12T06:04:49.648Z,12.2
2019-05-12T06:06:01.309Z,12
2019-05-12T06:07:14.154Z,11.9
2019-05-12T06:08:20.380Z,12.1
2019-05-12T06:09:29.493Z,12.1
2019-05-12T06:10:35.922Z,12.2
2019-05-12T06:11:43.529Z,12.2
2019-05-12T06:12:48.766Z,12
2019-05-12T06:13:53.430Z,12
2019-05-12T06:14:59.715Z,12.1
2019-05-12T06:16:01.217Z,12.1
2019-05-12T06:17:04.910Z,12.2
2019-05-12T06:18:06.164Z,12.2
2019-05-12T06:19:07.425Z,12.2
2019-05-12T06:20:08.725Z,12.2
2019-05-12T06:21:14.147Z,12.3
2019-05-12T06:22:18.177Z,12.2
2019-05-12T06:23:19.563Z,12.3
2019-05-12T06:24:24.815Z,12.4
2019-05-12T06:25:26.625Z,12.5
2019-05-12T06:26:56.364Z,12.5
2019-05-12T06:28:04.104Z,12.6
2019-05-12T06:29:11.144Z,12.6
2019-05-12T06:30:21.273Z,12.6
2019-05-12T06:31:29.594Z,12.6
2019-05-12T06:32:33.981Z,12.5
2019-05-12T06:33:37.483Z,12.6
2019-05-12T06:34:38.758Z,12.6
2019-05-12T06:35:42.175Z,12.7
2019-05-12T06:36:46.132Z,12.7
2019-05-12T06:37:57.012Z,12.7
2019-05-12T06:39:04.342Z,12.8
2019-05-12T06:40:13.844Z,12.5
2019-05-12T06:41:20.425Z,12.6
2019-05-12T06:42:26.514Z,12.5
2019-05-12T06:43:29.035Z,12.3
2019-05-12T06:44:37.549Z,12.3
2019-05-12T06:45:42.430Z,12.4
2019-05-12T06:46:46.465Z,12.6
2019-05-12T06:47:49.580Z,12.6
2019-05-12T06:48:54.441Z,12.7
2019-05-12T06:49:58.067Z,12.7
2019-05-12T06:50:59.528Z,12.7
2019-05-12T06:52:01.928Z,12.8
2019-05-12T06:53:07.844Z,12.5
2019-05-12T06:54:11.916Z,12.6
2019-05-12T06:55:17.277Z,12.6
2019-05-12T06:56:19.716Z,12.7
2019-05-12T06:57:25.047Z,12.8
2019-05-12T06:58:31.463Z,12.7
2019-05-12T06:59:35.210Z,12.8
2019-05-12T07:00:39.732Z,12.8
2019-05-12T07:01:40.976Z,12.9
2019-05-12T07:02:49.858Z,13
2019-05-12T07:04:00.468Z,13.5
2019-05-12T07:05:10.467Z,13.8
2019-05-12T07:06:19.605Z,13.9
2019-05-12T07:07:23.420Z,13.9
2019-05-12T07:08:32.087Z,13.9
2019-05-12T07:09:50.035Z,14
2019-05-12T07:11:05.993Z,14
2019-05-12T07:12:07.493Z,14
2019-05-12T07:13:08.751Z,14.1
2019-05-12T07:14:22.274Z,14.1
2019-05-12T07:15:29.209Z,14.1
2019-05-12T07:16:39.363Z,14.1
2019-05-12T07:17:43.412Z,14.1
2019-05-12T07:18:50.484Z,14.1
2019-05-12T07:19:54.558Z,14.1
2019-05-12T07:20:59.218Z,14.5
2019-05-12T07:22:00.496Z,14.8
2019-05-12T07:23:04.242Z,15.1
2019-05-12T07:24:10.987Z,15.2
2019-05-12T07:25:14.882Z,15.4
2019-05-12T07:26:19.291Z,15.5
2019-05-12T07:27:33.678Z,15.5
2019-05-12T07:28:49.644Z,15.6
2019-05-12T07:29:50.908Z,15.6
2019-05-12T07:30:54.318Z,15.6
2019-05-12T07:31:55.865Z,15.6
2019-05-12T07:32:59.909Z,15.8
2019-05-12T07:34:07.665Z,15.9
2019-05-12T07:35:09.116Z,15.9
2019-05-12T07:36:10.387Z,16
2019-05-12T07:37:15.250Z,16.1
2019-05-12T07:38:20.735Z,16.2
2019-05-12T07:39:26.563Z,16.4
2019-05-12T07:40:29.963Z,16.6
2019-05-12T07:41:35.528Z,16.6
2019-05-12T07:42:39.472Z,16.5
2019-05-12T07:43:40.969Z,16.5
2019-05-12T07:44:44.921Z,16.6
2019-05-12T07:45:53.192Z,16.7
2019-05-12T07:47:08.144Z,16.8
2019-05-12T07:48:13.845Z,16.9
2019-05-12T07:49:15.282Z,16.9
2019-05-12T07:50:20.192Z,17
2019-05-12T07:51:30.207Z,17.1
2019-05-12T07:52:39.057Z,17
2019-05-12T07:53:40.365Z,17
2019-05-12T07:54:47.581Z,16.9
2019-05-12T07:55:49.546Z,16.9
2019-05-12T07:56:50.988Z,17
2019-05-12T07:57:58.461Z,17
2019-05-12T07:59:13.966Z,17.2
2019-05-12T08:00:20.999Z,17.1
2019-05-12T08:01:26.548Z,17
2019-05-12T08:02:31.503Z,17
2019-05-12T08:03:36.352Z,17
2019-05-12T08:04:39.704Z,17
2019-05-12T08:05:44.769Z,17.1
2019-05-12T08:06:46.622Z,17.1
2019-05-12T08:07:50.447Z,17.2
2019-05-12T08:08:58.804Z,17.2
2019-05-12T08:10:00.661Z,17.2
2019-05-12T08:11:04.367Z,17.2
2019-05-12T08:12:16.198Z,17.3
2019-05-12T08:13:23.774Z,17.3
2019-05-12T08:14:29.118Z,17.3
2019-05-12T08:15:33.212Z,17.4
2019-05-12T08:16:49.681Z,17.4
2019-05-12T08:17:55.185Z,17.4
2019-05-12T08:19:03.901Z,17.3
2019-05-12T08:20:09.021Z,17.4
2019-05-12T08:21:10.340Z,17.4
2019-05-12T08:22:13.502Z,17.4
2019-05-12T08:23:19.737Z,17.6
2019-05-12T08:24:23.889Z,17.5
2019-05-12T08:25:28.668Z,17.5
2019-05-12T08:26:33.447Z,17.7
2019-05-12T08:27:39.037Z,17.8
2019-05-12T08:28:48.249Z,17.9
2019-05-12T08:29:52.298Z,17.9
2019-05-12T08:31:03.780Z,17.8
2019-05-12T08:32:09.760Z,17.9
2019-05-12T08:33:18.850Z,18
2019-05-12T08:34:20.106Z,18
2019-05-12T08:35:26.766Z,18
2019-05-12T08:36:36.529Z,18.1
2019-05-12T08:37:37.866Z,18
2019-05-12T08:38:39.302Z,18.1
2019-05-12T08:39:40.806Z,18.1
2019-05-12T08:40:48.943Z,18.1
2019-05-12T08:41:55.781Z,18.1
2019-05-12T08:42:59.320Z,18.2
2019-05-12T08:44:09.716Z,18.2
2019-05-12T08:45:14.780Z,18.2
2019-05-12T08:46:28.056Z,18.2
2019-05-12T08:47:34.276Z,18.1
2019-05-12T08:48:39.614Z,18.1
2019-05-12T08:49:50.854Z,18.2
2019-05-12T08:51:04.290Z,18.2
2019-05-12T08:52:15.194Z,18.2
2019-05-12T08:53:20.661Z,18.2
2019-05-12T08:54:27.213Z,18.2
2019-05-12T08:55:31.215Z,18.3
2019-05-12T08:56:36.519Z,18.3
2019-05-12T08:57:40.604Z,18.3
2019-05-12T08:58:51.326Z,18.3
2019-05-12T09:00:02.686Z,18.3
2019-05-12T09:01:09.318Z,18.3
2019-05-12T09:02:10.951Z,18.3
2019-05-12T09:03:15.190Z,18.4
2019-05-12T09:04:21.591Z,18.4
2019-05-12T09:06:39.361Z,18.4
2019-05-12T09:07:43.725Z,18.5
2019-05-12T09:08:49.425Z,18.5
2019-05-12T09:09:53.209Z,18.6
2019-05-12T09:10:55.440Z,18.6
2019-05-12T09:11:59.066Z,18.6
2019-05-12T09:13:00.359Z,18.6
2019-05-12T09:14:05.779Z,18.7
2019-05-12T09:15:13.722Z,18.7
2019-05-12T09:16:15.073Z,18.7
2019-05-12T09:17:16.347Z,18.7
2019-05-12T09:18:18.954Z,18.8
2019-05-12T09:19:24.762Z,18.8
2019-05-12T09:20:34.222Z,18.8
2019-05-12T09:21:44.032Z,18.8
2019-05-12T09:22:45.612Z,18.9
2019-05-12T09:23:49.344Z,18.9
2019-05-12T09:24:58.312Z,18.9
2019-05-12T09:26:07.790Z,19
2019-05-12T09:27:09.341Z,19
2019-05-12T09:28:10.624Z,19
2019-05-12T09:29:14.819Z,19
2019-05-12T09:30:23.827Z,19
2019-05-12T09:31:29.263Z,19.1
2019-05-12T09:32:30.883Z,19.1
2019-05-12T09:33:34.781Z,19.1
2019-05-12T09:34:36.466Z,19.1
2019-05-12T09:35:44.621Z,19.2
2019-05-12T09:36:45.876Z,19.2
2019-05-12T09:37:54.665Z,19.2
2019-05-12T09:39:01.385Z,19.2
2019-05-12T09:40:06.737Z,19.2
2019-05-12T09:41:09.025Z,19.3
2019-05-12T09:42:19.150Z,19.3
2019-05-12T09:43:28.659Z,19.3
2019-05-12T09:44:30.495Z,19.3
2019-05-12T09:45:33.382Z,19.3
2019-05-12T09:46:37.554Z,19.3
2019-05-12T09:47:43.594Z,19.4
2019-05-12T09:48:51.805Z,19.4
2019-05-12T09:49:55.727Z,19.4
2019-05-12T09:51:00.515Z,19.4
2019-05-12T09:52:05.007Z,19.4
2019-05-12T09:53:09.971Z,19.4
2019-05-12T09:54:15.027Z,19.4
2019-05-12T09:55:16.317Z,19.5
2019-05-12T09:56:17.632Z,19.5
2019-05-12T09:57:19.371Z,19.5
2019-05-12T09:58:25.048Z,19.5
2019-05-12T09:59:28.773Z,19.5
2019-05-12T10:00:37.816Z,19.6
2019-05-12T10:01:39.711Z,19.6
2019-05-12T10:02:46.376Z,19.6
2019-05-12T10:03:54.186Z,19.6
2019-05-12T10:05:00.384Z,19.6
2019-05-12T10:06:04.669Z,19.6
2019-05-12T10:07:14.050Z,19.6
2019-05-12T10:08:15.418Z,19.6
2019-05-12T10:09:19.692Z,19.6
2019-05-12T10:10:21.299Z,19.6
2019-05-12T10:12:00.451Z,19.6
2019-05-12T10:13:06.168Z,19.6
2019-05-12T10:14:10.707Z,19.6
2019-05-12T10:15:18.532Z,19.7
2019-05-12T10:16:28.657Z,19.7
2019-05-12T10:17:30.448Z,19.7
2019-05-12T10:18:33.620Z,19.7
2019-05-12T10:19:37.945Z,19.7
2019-05-12T10:20:39.874Z,19.7
2019-05-12T10:21:49.024Z,19.7
2019-05-12T10:23:04.023Z,19.8
2019-05-12T10:24:08.573Z,19.8
2019-05-12T10:25:10.353Z,19.8
2019-05-12T10:26:14.387Z,19.8
2019-05-12T10:27:20.931Z,19.7
2019-05-12T10:28:32.304Z,19.8
2019-05-12T10:29:33.579Z,19.8
2019-05-12T10:30:34.829Z,19.8
2019-05-12T10:31:39.213Z,19.8
2019-05-12T10:32:40.589Z,19.8
2019-05-12T10:33:48.866Z,19.8
2019-05-12T10:34:57.221Z,19.8
2019-05-12T10:35:59.263Z,19.8
2019-05-12T10:37:08.177Z,19.8
2019-05-12T10:38:13.625Z,19.8
2019-05-12T10:39:15.512Z,19.8
2019-05-12T10:40:20.456Z,19.9
2019-05-12T10:41:24.159Z,19.8
2019-05-12T10:42:25.453Z,19.9
2019-05-12T10:43:26.740Z,19.9
2019-05-12T10:44:37.226Z,19.9
2019-05-12T10:45:44.609Z,19.9
2019-05-12T10:46:45.854Z,19.9
2019-05-12T10:47:47.398Z,19.9
2019-05-12T10:48:48.718Z,19.9
2019-05-12T10:49:53.685Z,19.9
2019-05-12T10:50:57.346Z,19.9
2019-05-12T10:52:03.720Z,19.9
2019-05-12T10:53:09.677Z,19.9
2019-05-12T10:54:16.464Z,19.9
2019-05-12T10:55:17.917Z,19.9
2019-05-12T10:56:19.292Z,19.9
2019-05-12T10:57:20.534Z,19.9
2019-05-12T10:58:24.822Z,19.9
2019-05-12T10:59:31.959Z,19.9
2019-05-12T11:00:39.311Z,19.9
2019-05-12T11:01:45.341Z,19.9
2019-05-12T11:02:49.850Z,19.9
2019-05-12T11:03:52.219Z,19.9
2019-05-12T11:04:54.176Z,19.9
2019-05-12T11:06:02.322Z,20
2019-05-12T11:07:08.401Z,20
2019-05-12T11:08:14.249Z,19.9
2019-05-12T11:09:21.193Z,19.9
2019-05-12T11:10:30.505Z,20
2019-05-12T11:11:41.941Z,20
2019-05-12T11:12:47.856Z,19.9
2019-05-12T11:13:53.591Z,20
2019-05-12T11:15:06.578Z,20
2019-05-12T11:16:09.240Z,20
2019-05-12T11:17:19.696Z,20
2019-05-12T11:18:30.063Z,20
2019-05-12T11:19:33.692Z,20
2019-05-12T11:20:35.102Z,20
2019-05-12T11:21:36.599Z,20
2019-05-12T11:22:39.130Z,20
2019-05-12T11:23:43.987Z,20
2019-05-12T11:24:45.276Z,20
2019-05-12T11:25:46.668Z,20
2019-05-12T11:26:48.217Z,20
2019-05-12T11:27:49.848Z,20
2019-05-12T11:28:53.163Z,20
2019-05-12T11:29:54.641Z,20
2019-05-12T11:30:56.166Z,20
2019-05-12T11:32:00.236Z,20
2019-05-12T11:33:04.017Z,20
2019-05-12T11:34:07.634Z,20
2019-05-12T11:35:09.366Z,20
2019-05-12T11:36:10.616Z,20
2019-05-12T11:37:14.214Z,20
2019-05-12T11:38:15.488Z,20
2019-05-12T11:39:19.490Z,20
2019-05-12T11:40:20.746Z,20
2019-05-12T11:41:28.343Z,20
2019-05-12T11:42:29.855Z,20
2019-05-12T11:43:36.380Z,20
2019-05-12T11:44:37.646Z,20
2019-05-12T11:45:38.913Z,20
2019-05-12T11:46:40.192Z,20
2019-05-12T11:47:44.689Z,20
2019-05-12T11:48:50.153Z,20
2019-05-12T11:50:04.816Z,20
2019-05-12T11:51:10.708Z,20
2019-05-12T11:52:18.396Z,20
2019-05-12T11:53:21.717Z,20
2019-05-12T11:54:33.104Z,20
2019-05-12T11:55:35.020Z,20
2019-05-12T11:56:40.225Z,20
2019-05-12T11:57:49.754Z,20
2019-05-12T11:58:51.985Z,20
2019-05-12T12:00:01.025Z,20
2019-05-12T12:01:08.202Z,20
2019-05-12T12:02:13.429Z,20
2019-05-12T12:03:23.255Z,20
2019-05-12T12:04:24.712Z,20
2019-05-12T12:05:29.111Z,20
2019-05-12T12:06:30.388Z,20
2019-05-12T12:08:53.503Z,20
2019-05-12T12:09:59.243Z,20
2019-05-12T12:11:01.326Z,20
2019-05-12T12:12:07.147Z,20
2019-05-12T12:13:08.677Z,19.9
2019-05-12T12:14:10.567Z,20
2019-05-12T12:15:13.747Z,20.1
2019-05-12T12:16:16.156Z,20.1
2019-05-12T12:17:22.138Z,20.1
2019-05-12T12:18:33.737Z,20.1
2019-05-12T12:19:41.263Z,20.1
2019-05-12T12:20:54.945Z,20.1
2019-05-12T12:22:06.738Z,20.1
2019-05-12T12:23:10.723Z,20.1
2019-05-12T12:24:14.773Z,20
2019-05-12T12:25:35.199Z,20.1
2019-05-12T12:26:37.259Z,20.1
2019-05-12T12:27:38.871Z,20
2019-05-12T12:28:43.323Z,20.1
2019-05-12T12:29:54.316Z,20.1
2019-05-12T12:31:00.771Z,20.1
2019-05-12T12:32:09.772Z,20.1
2019-05-12T12:33:19.201Z,20.1
2019-05-12T12:34:28.727Z,20.1
2019-05-12T12:35:34.318Z,20.1
2019-05-12T12:36:38.893Z,20.1
2019-05-12T12:37:40.282Z,20.1
2019-05-12T12:38:41.518Z,20.1
2019-05-12T12:39:44.689Z,20
2019-05-12T12:40:53.630Z,20.1
2019-05-12T12:42:00.277Z,20.1
2019-05-12T12:43:05.492Z,20.1
2019-05-12T12:44:13.597Z,20.1
2019-05-12T12:45:14.996Z,20.1
2019-05-12T12:46:17.554Z,20.1
2019-05-12T12:47:25.089Z,20.1
2019-05-12T12:48:29.675Z,20.1
2019-05-12T12:49:34.273Z,20.1
2019-05-12T12:50:35.523Z,20.1
2019-05-12T12:51:36.784Z,20.1
2019-05-12T12:52:44.678Z,20.1
2019-05-12T12:53:49.607Z,20.1
2019-05-12T12:54:59.200Z,20.1
2019-05-12T12:56:08.127Z,20.1
2019-05-12T12:57:10.032Z,20.1
2019-05-12T12:58:31.074Z,20.2
2019-05-12T12:59:35.171Z,20.2
2019-05-12T13:00:46.584Z,20.2
2019-05-12T13:01:59.002Z,20.2
2019-05-12T13:03:08.240Z,20.2
2019-05-12T13:04:13.213Z,20.1
2019-05-12T13:05:14.654Z,20.2
2019-05-12T13:06:17.308Z,20.2
2019-05-12T13:07:18.769Z,20.1
2019-05-12T13:08:24.914Z,20.1
2019-05-12T13:09:26.199Z,20.1
2019-05-12T13:10:27.560Z,20.1
2019-05-12T13:11:33.416Z,20.1
2019-05-12T13:12:35.864Z,20.1
2019-05-12T13:13:37.279Z,20.1
2019-05-12T13:14:39.398Z,20.1
2019-05-12T13:15:45.531Z,20.2
2019-05-12T13:16:54.198Z,20.2
2019-05-12T13:17:56.968Z,20.2
2019-05-12T13:19:03.664Z,20.2
2019-05-12T13:20:18.484Z,20.2
2019-05-12T13:21:24.514Z,20.2
2019-05-12T13:22:25.831Z,20.2
2019-05-12T13:23:37.745Z,20.2
2019-05-12T13:24:43.846Z,20.2
2019-05-12T13:25:51.783Z,20.2
2019-05-12T13:26:58.587Z,20.2
2019-05-12T13:28:01.415Z,20.2
2019-05-12T13:29:13.244Z,20.2
2019-05-12T13:30:19.684Z,20.2
2019-05-12T13:31:24.749Z,20.2
2019-05-12T13:32:31.940Z,20.2
2019-05-12T13:33:38.753Z,20.3
2019-05-12T13:34:40.274Z,20.2
2019-05-12T13:35:50.087Z,20.3
2019-05-12T13:36:56.701Z,20.3
2019-05-12T13:38:00.514Z,20.3
2019-05-12T13:39:04.956Z,20.3
2019-05-12T13:40:12.373Z,20.2
2019-05-12T13:41:15.717Z,20.2
2019-05-12T13:42:20.775Z,20.3
2019-05-12T13:43:23.682Z,20.3
2019-05-12T13:44:30.209Z,20.3
2019-05-12T13:45:39.729Z,20.3
2019-05-12T13:46:45.288Z,20.3
2019-05-12T13:47:55.389Z,20.3
2019-05-12T13:48:59.332Z,20.3
2019-05-12T13:50:21.231Z,20.3
2019-05-12T13:51:27.251Z,20.3
2019-05-12T13:52:30.375Z,20.3
2019-05-12T13:53:33.960Z,20.3
2019-05-12T13:54:35.257Z,20.3
2019-05-12T13:55:44.156Z,20.3
2019-05-12T13:56:50.125Z,20.3
2019-05-12T13:57:53.015Z,20.3
2019-05-12T13:58:58.566Z,20.2
2019-05-12T14:00:06.243Z,20.2
2019-05-12T14:01:16.844Z,20.2
2019-05-12T14:02:22.282Z,20.2
2019-05-12T14:03:27.979Z,20.3
2019-05-12T14:04:29.612Z,20.3
2019-05-12T14:05:30.969Z,20.3
2019-05-12T14:06:37.574Z,20.3
2019-05-12T14:07:39.016Z,20.3
2019-05-12T14:08:40.290Z,20.3
2019-05-12T14:09:43.636Z,20.3
2019-05-12T14:11:59.357Z,20.3
2019-05-12T14:13:03.473Z,20.3
2019-05-12T14:14:11.147Z,20.3
2019-05-12T14:15:16.622Z,20.3
2019-05-12T14:16:26.185Z,20.3
2019-05-12T14:17:30.916Z,20.3
2019-05-12T14:18:40.091Z,20.3
2019-05-12T14:19:41.327Z,20.3
2019-05-12T14:20:45.147Z,20.3
2019-05-12T14:21:54.116Z,20.3
2019-05-12T14:22:55.521Z,20.3
2019-05-12T14:23:58.097Z,20.3
2019-05-12T14:25:02.052Z,20.3
2019-05-12T14:26:07.490Z,20.3
2019-05-12T14:27:13.532Z,20.3
2019-05-12T14:28:16.627Z,20.3
2019-05-12T14:29:25.393Z,20.3
2019-05-12T14:30:33.509Z,20.3
2019-05-12T14:31:36.144Z,20.3
2019-05-12T14:32:54.928Z,20.3
2019-05-12T14:33:59.930Z,20.3
2019-05-12T14:35:04.255Z,20.3
2019-05-12T14:36:05.699Z,20.3
2019-05-12T14:37:10.309Z,20.3
2019-05-12T14:38:13.976Z,20.3
2019-05-12T14:39:20.122Z,20.3
2019-05-12T14:40:29.408Z,20.3